Time;durP1;ratioP1;P1;durP2;ratioP2;P2;SDS_P1;SDS_P2;PMS_P1;PMS_P2;Temp;Humidity;BMP_temperature;BMP_pressure;BME280_temperature;BME280_humidity;BME280_pressure;Samples;Min_cycle;Max_cycle;Signal;HPM_P1;HPM_P2
2022/03/09 00:00:09;;;;;;;6.22;4.25;;;3.20;64.30;;;;;;4930632;29;20471;-67
2022/03/09 00:02:35;;;;;;;9.63;4.70;;;3.20;64.40;;;;;;4931158;29;20047;-68
2022/03/09 00:05:01;;;;;;;6.95;3.95;;;3.20;64.30;;;;;;4929924;29;20058;-68
2022/03/09 00:07:27;;;;;;;8.18;4.75;;;3.20;64.50;;;;;;4913956;29;20071;-67
2022/03/09 00:09:53;;;;;;;7.90;4.18;;;3.20;64.30;;;;;;4929794;29;20091;-68
2022/03/09 00:12:19;;;;;;;8.25;4.93;;;3.20;64.40;;;;;;4930367;29;20066;-68
2022/03/09 00:14:45;;;;;;;11.25;4.68;;;3.20;64.30;;;;;;4931448;29;20367;-68
2022/03/09 00:17:11;;;;;;;8.93;4.55;;;3.20;64.40;;;;;;4930009;29;20496;-68
2022/03/09 00:19:36;;;;;;;8.82;4.25;;;3.30;64.50;;;;;;4930999;29;20135;-67
2022/03/09 00:22:02;;;;;;;7.00;3.95;;;3.20;64.40;;;;;;4928183;29;20047;-67
2022/03/09 00:24:28;;;;;;;10.48;4.82;;;3.20;64.40;;;;;;4927033;29;20118;-68
2022/03/09 00:26:54;;;;;;;9.50;5.10;;;3.20;64.50;;;;;;4930374;29;20130;-68
2022/03/09 00:29:20;;;;;;;8.05;4.45;;;3.30;64.40;;;;;;4931204;29;20130;-67
2022/03/09 00:31:45;;;;;;;7.35;4.50;;;3.30;64.40;;;;;;4913380;29;20483;-68
2022/03/09 00:34:11;;;;;;;6.55;4.75;;;3.30;64.40;;;;;;4929784;29;20052;-67
2022/03/09 00:36:37;;;;;;;8.57;4.15;;;3.30;64.40;;;;;;4930259;29;20123;-66
2022/03/09 00:39:02;;;;;;;8.13;4.68;;;3.20;64.30;;;;;;4929422;29;20481;-68
2022/03/09 00:41:28;;;;;;;8.25;4.70;;;3.30;64.40;;;;;;4929597;29;20090;-68
2022/03/09 00:43:54;;;;;;;8.55;4.88;;;3.20;64.20;;;;;;4929724;29;20071;-69
2022/03/09 00:46:19;;;;;;;7.28;4.93;;;3.20;64.20;;;;;;4930790;29;20111;-68
2022/03/09 00:48:45;;;;;;;9.65;4.85;;;3.20;64.30;;;;;;4931027;29;20134;-68
2022/03/09 00:51:10;;;;;;;6.68;4.75;;;3.10;64.50;;;;;;4929011;29;20126;-68
2022/03/09 00:53:38;;;;;;;12.65;5.53;;;3.10;64.50;;;;;;4928047;29;20135;-68
2022/03/09 00:56:04;;;;;;;9.93;4.82;;;3.10;64.60;;;;;;4929378;29;20039;-67
2022/03/09 00:58:29;;;;;;;8.80;5.10;;;3.10;64.70;;;;;;4931025;29;20051;-67
2022/03/09 01:00:55;;;;;;;9.13;5.05;;;3.10;64.70;;;;;;4929994;29;20046;-68
2022/03/09 01:03:21;;;;;;;9.57;6.20;;;3.10;64.70;;;;;;4929292;29;20039;-68
2022/03/09 01:05:46;;;;;;;8.73;4.93;;;3.10;64.70;;;;;;4930442;29;20044;-69
2022/03/09 01:08:12;;;;;;;11.25;5.80;;;3.00;64.80;;;;;;4929987;29;20043;-68
2022/03/09 01:10:37;;;;;;;9.93;5.03;;;3.00;64.80;;;;;;4930641;29;20035;-69
2022/03/09 01:13:03;;;;;;;10.82;5.38;;;3.00;64.80;;;;;;4930020;29;20054;-68
2022/03/09 01:15:29;;;;;;;9.98;5.80;;;2.90;64.90;;;;;;4930871;29;20031;-68
2022/03/09 01:17:54;;;;;;;10.07;5.75;;;3.00;65.10;;;;;;4897273;29;20044;-67
2022/03/09 01:20:20;;;;;;;8.32;5.53;;;2.90;65.10;;;;;;4930337;29;20056;-67
2022/03/09 01:22:46;;;;;;;11.93;5.60;;;3.00;65.00;;;;;;4930498;29;20036;-67
2022/03/09 01:25:12;;;;;;;9.98;6.15;;;2.90;65.20;;;;;;4929369;29;20062;-67
2022/03/09 01:27:37;;;;;;;11.55;6.13;;;2.90;65.10;;;;;;4928962;29;20404;-68
2022/03/09 01:30:04;;;;;;;10.57;5.18;;;2.90;65.10;;;;;;4930509;29;20079;-67
2022/03/09 01:32:30;;;;;;;9.43;6.03;;;2.80;65.20;;;;;;4930133;29;20087;-68
2022/03/09 01:34:55;;;;;;;8.52;5.85;;;2.80;65.20;;;;;;4929388;29;20083;-68
2022/03/09 01:37:21;;;;;;;8.25;5.38;;;2.80;65.30;;;;;;4929965;29;20101;-67
2022/03/09 01:39:47;;;;;;;9.38;5.60;;;2.80;65.30;;;;;;4930448;29;20122;-67
2022/03/09 01:42:13;;;;;;;8.07;5.22;;;2.80;65.50;;;;;;4929135;29;20044;-66
2022/03/09 01:44:38;;;;;;;11.55;5.30;;;2.80;65.40;;;;;;4930218;29;20492;-68
2022/03/09 01:47:04;;;;;;;8.43;5.70;;;2.80;65.30;;;;;;4930097;29;20051;-69
2022/03/09 01:49:30;;;;;;;10.65;6.18;;;2.90;65.20;;;;;;4929638;29;20468;-66
2022/03/09 01:52:00;;;;;;;13.02;5.60;;;2.90;65.20;;;;;;4929501;29;20163;-67
2022/03/09 01:54:26;;;;;;;10.82;6.40;;;2.90;65.10;;;;;;4913421;29;20043;-67
2022/03/09 01:56:52;;;;;;;13.45;7.00;;;2.90;65.10;;;;;;4929899;29;20040;-67
2022/03/09 01:59:18;;;;;;;9.77;6.28;;;2.90;65.00;;;;;;4930149;29;20114;-68
2022/03/09 02:01:45;;;;;;;10.05;5.68;;;2.90;65.00;;;;;;4927152;29;20112;-68
2022/03/09 02:04:11;;;;;;;15.57;6.55;;;2.90;65.00;;;;;;4930144;29;20325;-68
2022/03/09 02:06:38;;;;;;;11.13;6.45;;;2.90;65.00;;;;;;4927843;29;20044;-68
2022/03/09 02:11:52;;;;;;;9.05;6.40;;;2.80;65.10;;;;;;4931374;29;20138;-67
2022/03/09 02:14:33;;;;;;;11.82;6.60;;;2.80;65.10;;;;;;4933432;29;20051;-68
2022/03/09 02:17:01;;;;;;;9.85;5.55;;;2.80;65.10;;;;;;4932024;29;20162;-69
2022/03/09 02:19:27;;;;;;;11.40;7.10;;;2.80;65.10;;;;;;4933628;29;20595;-67
2022/03/09 02:22:18;;;;;;;10.52;6.55;;;2.80;65.10;;;;;;4933337;29;20146;-68
2022/03/09 02:24:44;;;;;;;12.23;6.72;;;2.90;65.30;;;;;;4929498;29;20106;-68
2022/03/09 02:27:09;;;;;;;10.55;6.22;;;2.80;65.30;;;;;;4932894;29;20655;-68
2022/03/09 02:29:35;;;;;;;9.95;6.90;;;2.70;65.30;;;;;;4931677;29;20059;-68
2022/03/09 02:32:02;;;;;;;10.38;6.95;;;2.70;65.30;;;;;;4933671;29;20081;-69
2022/03/09 02:34:29;;;;;;;15.10;7.20;;;2.70;65.30;;;;;;4931397;29;20044;-66
2022/03/09 02:36:55;;;;;;;12.18;7.53;;;2.70;65.30;;;;;;4933520;29;20080;-67
2022/03/09 02:39:21;;;;;;;12.45;7.13;;;2.70;65.30;;;;;;4932358;29;20046;-67
2022/03/09 02:41:46;;;;;;;13.00;8.45;;;2.70;65.40;;;;;;4933054;29;20036;-67
2022/03/09 02:44:12;;;;;;;14.50;8.50;;;2.70;65.30;;;;;;4932387;29;20051;-67
2022/03/09 02:46:38;;;;;;;10.32;6.95;;;2.70;65.30;;;;;;4932960;29;20055;-67
2022/03/09 02:49:04;;;;;;;11.82;6.95;;;2.70;65.20;;;;;;4915394;29;20043;-67
2022/03/09 02:51:29;;;;;;;12.52;7.75;;;2.70;65.40;;;;;;4932373;29;20039;-68
2022/03/09 02:53:55;;;;;;;11.65;7.43;;;2.70;65.40;;;;;;4931729;29;20050;-68
2022/03/09 02:56:21;;;;;;;16.08;7.63;;;2.70;65.30;;;;;;4931731;29;20179;-68
2022/03/09 02:58:46;;;;;;;11.55;7.78;;;2.70;65.20;;;;;;4915198;29;20138;-68
2022/03/09 03:01:13;;;;;;;11.80;7.28;;;2.70;65.20;;;;;;4931862;29;20039;-68
2022/03/09 03:03:43;;;;;;;10.02;6.32;;;2.70;65.20;;;;;;4932288;29;20071;-68
2022/03/09 03:06:10;;;;;;;12.98;7.40;;;2.70;65.20;;;;;;4929747;29;20504;-68
2022/03/09 03:08:38;;;;;;;10.93;7.00;;;2.70;65.10;;;;;;4932640;29;20087;-67
2022/03/09 03:11:08;;;;;;;10.43;7.13;;;2.70;65.10;;;;;;4931494;29;20035;-68
2022/03/09 03:13:36;;;;;;;12.57;7.65;;;2.70;65.20;;;;;;4932529;29;20044;-67
2022/03/09 03:16:02;;;;;;;12.90;7.30;;;2.60;65.20;;;;;;4931264;29;20039;-67
2022/03/09 03:18:27;;;;;;;14.20;7.25;;;2.60;65.30;;;;;;4932579;29;20098;-67
2022/03/09 03:20:54;;;;;;;10.60;7.05;;;2.60;65.20;;;;;;4931583;29;20047;-68
2022/03/09 03:23:27;;;;;;;10.93;7.22;;;2.60;65.30;;;;;;4931705;29;20055;-67
2022/03/09 03:25:53;;;;;;;9.75;6.20;;;2.50;65.40;;;;;;4930973;29;20048;-68
2022/03/09 03:28:20;;;;;;;12.10;7.30;;;2.50;65.30;;;;;;4931945;29;20043;-68
2022/03/09 03:30:46;;;;;;;15.75;7.35;;;2.40;65.20;;;;;;4931816;29;20035;-68
2022/03/09 03:33:13;;;;;;;10.68;6.75;;;2.50;65.30;;;;;;4930722;29;20040;-68
2022/03/09 03:35:39;;;;;;;11.07;7.75;;;2.40;65.30;;;;;;4928123;29;20060;-67
2022/03/09 03:38:05;;;;;;;10.68;6.60;;;2.40;65.40;;;;;;4932031;29;20040;-67
2022/03/09 03:40:30;;;;;;;12.98;6.75;;;2.40;65.50;;;;;;4930709;29;20048;-67
2022/03/09 03:42:56;;;;;;;12.35;7.30;;;2.30;65.60;;;;;;4931419;29;20108;-67
2022/03/09 03:45:22;;;;;;;10.38;7.03;;;2.40;65.60;;;;;;4931548;29;20039;-67
2022/03/09 03:47:47;;;;;;;14.27;7.90;;;2.30;65.50;;;;;;4931994;29;20052;-67
2022/03/09 03:50:13;;;;;;;12.02;7.40;;;2.20;65.50;;;;;;4931698;29;20059;-68
2022/03/09 03:52:39;;;;;;;12.68;7.55;;;2.20;65.70;;;;;;4930612;29;20039;-68
2022/03/09 03:55:05;;;;;;;13.45;7.38;;;2.30;65.70;;;;;;4929190;29;20408;-66
2022/03/09 03:57:30;;;;;;;12.10;7.00;;;2.20;65.60;;;;;;4930456;29;20036;-67
2022/03/09 03:59:56;;;;;;;12.85;7.45;;;2.30;65.50;;;;;;4931498;29;20055;-67
2022/03/09 04:02:22;;;;;;;14.18;7.55;;;2.30;65.50;;;;;;4923331;29;20047;-67
2022/03/09 04:04:47;;;;;;;13.27;6.78;;;2.20;65.50;;;;;;4932323;29;20123;-68
2022/03/09 04:07:13;;;;;;;10.65;7.30;;;2.20;65.50;;;;;;4914987;29;20156;-68
2022/03/09 04:09:39;;;;;;;12.07;7.15;;;2.20;65.60;;;;;;4931003;29;20046;-68
2022/03/09 04:12:04;;;;;;;12.10;6.82;;;2.20;65.50;;;;;;4913456;29;20384;-68
2022/03/09 04:14:30;;;;;;;12.02;8.10;;;2.20;65.50;;;;;;4914260;29;20493;-67
2022/03/09 04:16:56;;;;;;;12.40;7.53;;;2.20;65.40;;;;;;4932540;29;20040;-67
2022/03/09 04:19:21;;;;;;;10.70;7.57;;;2.20;65.60;;;;;;4914663;29;20063;-68
2022/03/09 04:21:47;;;;;;;12.75;7.53;;;2.20;65.80;;;;;;4931623;29;20050;-68
2022/03/09 04:24:13;;;;;;;12.95;8.75;;;2.20;65.60;;;;;;4930508;29;20574;-67
2022/03/09 04:26:38;;;;;;;13.20;7.47;;;2.20;65.70;;;;;;4920666;29;20063;-67
2022/03/09 04:29:04;;;;;;;10.82;7.65;;;2.10;65.80;;;;;;4919369;29;20043;-67
2022/03/09 04:31:30;;;;;;;16.23;8.07;;;2.10;65.80;;;;;;4913466;29;20249;-67
2022/03/09 04:33:55;;;;;;;12.32;7.65;;;2.10;65.80;;;;;;4919034;29;20043;-67
2022/03/09 04:36:21;;;;;;;10.85;7.10;;;2.10;65.90;;;;;;4932162;29;20490;-67
2022/03/09 04:38:46;;;;;;;13.65;7.35;;;2.00;65.90;;;;;;4926936;29;20392;-67
2022/03/09 04:41:12;;;;;;;14.18;8.00;;;2.00;65.90;;;;;;4913797;29;20044;-68
2022/03/09 04:43:38;;;;;;;13.50;7.70;;;2.00;66.00;;;;;;4916571;29;20511;-67
2022/03/09 04:46:03;;;;;;;13.93;8.90;;;1.90;66.10;;;;;;4932073;29;20070;-67
2022/03/09 04:48:29;;;;;;;13.13;7.80;;;1.90;66.20;;;;;;4922503;29;20479;-67
2022/03/09 04:50:55;;;;;;;10.68;6.85;;;2.00;66.20;;;;;;4913306;29;20036;-67
2022/03/09 04:53:20;;;;;;;12.57;8.23;;;1.90;66.00;;;;;;4920137;29;20051;-68
2022/03/09 04:55:46;;;;;;;11.80;7.68;;;1.90;66.00;;;;;;4921704;29;20044;-67
2022/03/09 04:58:11;;;;;;;11.95;7.38;;;1.90;66.10;;;;;;4935398;29;20042;-67
2022/03/09 05:00:37;;;;;;;11.15;7.63;;;1.90;66.10;;;;;;4944799;28;20099;-66
2022/03/09 05:03:02;;;;;;;11.88;7.43;;;1.90;66.20;;;;;;4922808;29;20133;-67
2022/03/09 05:05:29;;;;;;;12.85;7.63;;;1.80;66.20;;;;;;4927351;29;20044;-68
2022/03/09 05:07:54;;;;;;;12.15;8.20;;;1.90;66.20;;;;;;4933559;29;20134;-68
2022/03/09 05:10:20;;;;;;;11.02;7.10;;;1.90;66.30;;;;;;4924061;29;20127;-68
2022/03/09 05:12:46;;;;;;;13.43;8.27;;;1.80;66.30;;;;;;4926938;29;20051;-68
2022/03/09 05:15:11;;;;;;;14.98;7.80;;;1.80;66.40;;;;;;4931104;29;20055;-68
2022/03/09 05:17:41;;;;;;;12.63;7.32;;;1.80;66.40;;;;;;4931946;29;20039;-68
2022/03/09 05:20:08;;;;;;;15.23;8.15;;;1.80;66.30;;;;;;4925734;29;20048;-67
2022/03/09 05:22:33;;;;;;;15.00;7.90;;;1.80;66.30;;;;;;4914223;29;20100;-68
2022/03/09 05:24:59;;;;;;;12.98;8.05;;;1.80;66.20;;;;;;4929209;29;20051;-68
2022/03/09 05:27:28;;;;;;;12.93;7.90;;;1.80;66.20;;;;;;4926591;29;20053;-67
2022/03/09 05:29:53;;;;;;;12.27;7.97;;;1.80;66.20;;;;;;4926990;29;20047;-68
2022/03/09 05:32:19;;;;;;;13.95;8.02;;;1.80;66.30;;;;;;4927515;28;20047;-68
2022/03/09 05:34:46;;;;;;;14.40;7.82;;;1.70;66.30;;;;;;4929060;29;20123;-68
2022/03/09 05:37:12;;;;;;;17.13;8.95;;;1.70;66.40;;;;;;4913051;29;20703;-68
2022/03/09 05:39:38;;;;;;;11.77;7.45;;;1.80;66.50;;;;;;4913901;29;20044;-68
2022/03/09 05:42:04;;;;;;;13.05;7.60;;;1.70;66.50;;;;;;4927500;29;20047;-68
2022/03/09 05:44:29;;;;;;;12.32;7.25;;;1.70;66.40;;;;;;4917054;29;20048;-69
2022/03/09 05:46:56;;;;;;;14.50;6.90;;;1.70;66.50;;;;;;4915033;29;20056;-68
2022/03/09 05:49:22;;;;;;;13.70;8.07;;;1.70;66.40;;;;;;4948422;28;20046;-68
2022/03/09 05:51:48;;;;;;;14.32;8.63;;;1.70;66.50;;;;;;4919092;29;20052;-68
2022/03/09 05:54:13;;;;;;;12.60;8.02;;;1.70;66.50;;;;;;4929097;29;20039;-68
2022/03/09 05:56:40;;;;;;;14.85;8.20;;;1.80;66.40;;;;;;4926124;29;20084;-67
2022/03/09 05:59:05;;;;;;;13.95;7.88;;;1.70;66.50;;;;;;4932581;29;20042;-68
2022/03/09 06:01:31;;;;;;;12.07;7.03;;;1.80;66.60;;;;;;4935047;29;20044;-67
2022/03/09 06:03:57;;;;;;;13.32;8.60;;;1.80;66.60;;;;;;4928208;29;20044;-68
2022/03/09 06:06:25;;;;;;;10.95;7.38;;;1.70;66.60;;;;;;4928118;29;20122;-68
2022/03/09 06:08:50;;;;;;;13.60;8.40;;;1.70;66.60;;;;;;4918070;29;20054;-68
2022/03/09 06:11:17;;;;;;;14.93;8.95;;;1.70;66.70;;;;;;4931350;29;20044;-68
2022/03/09 06:13:42;;;;;;;13.60;7.90;;;1.70;66.60;;;;;;4928686;29;20498;-67
2022/03/09 06:16:08;;;;;;;11.98;7.30;;;1.70;66.50;;;;;;4927423;29;20080;-68
2022/03/09 06:18:34;;;;;;;15.15;7.43;;;1.70;66.70;;;;;;4924982;29;20040;-67
2022/03/09 06:20:59;;;;;;;14.23;7.97;;;1.70;66.90;;;;;;4919010;29;20039;-68
2022/03/09 06:23:25;;;;;;;13.98;8.70;;;1.80;66.80;;;;;;4917437;29;20111;-67
2022/03/09 06:25:50;;;;;;;15.50;8.15;;;1.70;66.80;;;;;;4930900;29;20040;-67
2022/03/09 06:28:16;;;;;;;12.45;7.63;;;1.70;66.80;;;;;;4931446;29;20051;-67
2022/03/09 06:30:41;;;;;;;18.73;8.10;;;1.80;66.80;;;;;;4934975;29;20574;-67
2022/03/09 06:33:08;;;;;;;12.02;7.45;;;1.80;66.90;;;;;;4919520;29;20488;-67
2022/03/09 06:35:33;;;;;;;12.30;7.72;;;1.80;66.90;;;;;;4915465;29;20478;-68
2022/03/09 06:37:59;;;;;;;10.90;7.20;;;1.80;66.80;;;;;;4920326;29;20130;-68
2022/03/09 06:40:25;;;;;;;10.57;6.85;;;1.70;66.90;;;;;;4931957;29;20078;-68
2022/03/09 06:42:51;;;;;;;14.98;8.82;;;1.80;66.90;;;;;;4921669;29;20127;-67
2022/03/09 06:45:16;;;;;;;17.88;7.90;;;1.80;66.90;;;;;;4914454;29;20564;-67
2022/03/09 06:47:42;;;;;;;15.30;7.90;;;1.90;66.80;;;;;;4926315;29;20094;-68
2022/03/09 06:50:11;;;;;;;18.30;8.23;;;1.90;66.90;;;;;;4933815;29;20059;-69
2022/03/09 06:52:37;;;;;;;12.57;8.05;;;1.90;66.90;;;;;;4931689;29;20192;-68
2022/03/09 06:55:03;;;;;;;13.18;9.73;;;2.00;66.80;;;;;;4933607;29;20126;-68
2022/03/09 06:57:30;;;;;;;11.10;8.10;;;2.00;67.00;;;;;;4932125;29;20036;-68
2022/03/09 06:59:56;;;;;;;13.05;7.45;;;2.00;67.00;;;;;;4933586;29;20479;-68
2022/03/09 07:02:22;;;;;;;16.85;7.63;;;2.00;67.10;;;;;;4933401;29;20035;-66
2022/03/09 07:04:48;;;;;;;14.15;7.63;;;2.10;67.00;;;;;;4925565;29;20055;-67
2022/03/09 07:07:14;;;;;;;13.50;8.05;;;2.10;67.00;;;;;;4925754;29;20511;-68
2022/03/09 07:09:39;;;;;;;13.27;7.32;;;2.10;67.20;;;;;;4922696;29;20046;-68
2022/03/09 07:12:05;;;;;;;12.00;7.60;;;2.10;67.20;;;;;;4933185;29;20091;-67
2022/03/09 07:14:31;;;;;;;14.65;7.82;;;2.00;67.40;;;;;;4933076;29;20040;-68
2022/03/09 07:16:57;;;;;;;17.02;9.13;;;2.00;67.50;;;;;;4933855;29;20044;-68
2022/03/09 07:19:22;;;;;;;12.05;7.80;;;2.10;67.70;;;;;;4931826;29;20051;-67
2022/03/09 07:21:48;;;;;;;11.57;6.90;;;2.50;70.60;;;;;;4936249;29;20170;-68
2022/03/09 07:24:15;;;;;;;13.57;7.05;;;2.70;68.80;;;;;;4925725;29;20036;-70
2022/03/09 07:26:42;;;;;;;12.18;6.63;;;2.80;67.80;;;;;;4897896;29;20406;-67
2022/03/09 07:29:11;;;;;;;13.20;7.47;;;2.80;67.30;;;;;;4913848;29;20159;-66
2022/03/09 07:31:37;;;;;;;11.13;7.07;;;2.80;67.00;;;;;;4914105;29;20048;-67
2022/03/09 07:34:02;;;;;;;12.35;6.95;;;2.90;67.00;;;;;;4914306;29;20062;-66
2022/03/09 07:36:28;;;;;;;10.25;6.90;;;2.90;66.90;;;;;;4914561;29;20482;-66
2022/03/09 07:38:54;;;;;;;17.33;7.05;;;3.00;67.10;;;;;;4917966;29;20044;-67
2022/03/09 07:41:22;;;;;;;11.82;7.20;;;3.00;66.90;;;;;;4937672;28;20464;-67
2022/03/09 07:43:48;;;;;;;15.35;8.27;;;3.10;67.10;;;;;;4936555;29;20062;-68
2022/03/09 07:46:14;;;;;;;9.93;6.68;;;3.20;67.10;;;;;;4914733;29;20071;-68
2022/03/09 07:48:39;;;;;;;15.88;7.35;;;3.30;66.80;;;;;;4929641;29;20059;-68
2022/03/09 07:51:05;;;;;;;12.25;6.72;;;3.30;66.60;;;;;;4914515;29;20110;-68
2022/03/09 07:53:31;;;;;;;10.95;6.78;;;3.50;66.70;;;;;;4925987;29;20135;-68
2022/03/09 07:55:56;;;;;;;15.15;7.28;;;3.50;66.40;;;;;;4932688;29;20043;-68
2022/03/09 07:58:22;;;;;;;13.40;6.95;;;3.60;66.30;;;;;;4928168;29;20070;-69
2022/03/09 08:00:47;;;;;;;12.10;6.90;;;3.60;66.10;;;;;;4917567;29;20408;-69
2022/03/09 08:03:16;;;;;;;13.57;7.63;;;3.60;66.00;;;;;;4916369;29;20516;-68
2022/03/09 08:05:44;;;;;;;13.60;6.95;;;3.60;66.30;;;;;;4932589;29;20063;-69
2022/03/09 08:08:09;;;;;;;10.95;6.43;;;3.70;66.20;;;;;;4931171;29;20052;-68
2022/03/09 08:10:35;;;;;;;14.15;7.53;;;3.80;66.30;;;;;;4927568;29;20099;-66
2022/03/09 08:13:01;;;;;;;10.95;6.78;;;3.80;66.40;;;;;;4927476;29;20048;-67
2022/03/09 08:15:27;;;;;;;12.38;7.38;;;3.90;66.40;;;;;;4919194;29;20060;-68
2022/03/09 08:17:53;;;;;;;11.77;7.38;;;4.00;66.20;;;;;;4925539;29;20056;-69
2022/03/09 08:20:19;;;;;;;13.55;7.63;;;4.10;66.00;;;;;;4918360;29;20043;-67
2022/03/09 08:22:45;;;;;;;16.10;8.25;;;4.10;66.00;;;;;;4920718;29;20051;-68
2022/03/09 08:25:10;;;;;;;10.13;6.05;;;4.20;65.90;;;;;;4928106;29;20051;-68
2022/03/09 08:27:36;;;;;;;11.57;7.35;;;4.20;65.90;;;;;;4929061;29;20594;-68
2022/03/09 08:30:04;;;;;;;14.75;6.88;;;4.20;65.70;;;;;;4923704;29;20039;-69
2022/03/09 08:32:29;;;;;;;11.30;7.40;;;4.30;65.60;;;;;;4918902;29;20051;-68
2022/03/09 08:34:55;;;;;;;11.02;7.03;;;4.40;65.30;;;;;;4934133;29;20099;-66
2022/03/09 08:37:20;;;;;;;18.75;8.07;;;4.40;65.10;;;;;;4930211;29;20036;-68
2022/03/09 08:39:48;;;;;;;9.73;6.70;;;4.50;64.90;;;;;;4926453;29;20398;-67
2022/03/09 08:42:17;;;;;;;9.43;6.35;;;4.60;64.70;;;;;;4916201;29;20489;-68
2022/03/09 08:44:43;;;;;;;13.48;8.30;;;4.60;64.70;;;;;;4902837;29;20400;-68
2022/03/09 08:47:09;;;;;;;12.98;6.57;;;4.70;64.60;;;;;;4922243;29;20564;-68
2022/03/09 08:49:39;;;;;;;15.52;7.05;;;4.80;64.90;;;;;;4916105;29;20051;-67
2022/03/09 08:52:08;;;;;;;10.27;6.43;;;4.90;64.00;;;;;;4916544;29;20059;-68
2022/03/09 08:54:34;;;;;;;12.63;7.28;;;4.90;63.40;;;;;;4922890;29;20055;-68
2022/03/09 08:56:59;;;;;;;10.05;6.22;;;5.00;63.80;;;;;;4926075;29;20051;-68
2022/03/09 08:59:36;;;;;;;10.50;6.40;;;5.10;62.30;;;;;;4913298;29;20103;-69
2022/03/09 09:02:02;;;;;;;12.57;6.85;;;5.10;62.90;;;;;;4914984;29;20055;-69
2022/03/09 09:04:28;;;;;;;18.92;6.88;;;5.20;62.90;;;;;;4913942;29;20091;-69
2022/03/09 09:06:54;;;;;;;12.13;7.13;;;5.30;62.40;;;;;;4916254;29;20475;-69
2022/03/09 09:09:22;;;;;;;14.20;7.22;;;5.30;61.00;;;;;;4912518;29;20051;-68
2022/03/09 09:11:53;;;;;;;12.85;7.00;;;5.40;62.00;;;;;;4907957;29;20055;-68
2022/03/09 09:14:19;;;;;;;11.93;6.85;;;5.60;62.20;;;;;;4914571;29;20568;-68
2022/03/09 09:16:44;;;;;;;12.05;7.53;;;5.60;61.60;;;;;;4914562;29;20094;-68
2022/03/09 09:19:10;;;;;;;12.25;8.25;;;5.70;61.90;;;;;;4913959;29;20484;-68
2022/03/09 09:21:40;;;;;;;11.63;6.78;;;5.70;61.40;;;;;;4930983;29;20074;-68
2022/03/09 09:24:05;;;;;;;9.65;6.25;;;5.90;60.90;;;;;;4924827;29;20150;-68
2022/03/09 09:26:31;;;;;;;18.55;9.57;;;5.90;61.00;;;;;;4916984;29;20481;-69
2022/03/09 09:28:57;;;;;;;14.95;7.78;;;6.10;60.40;;;;;;4914035;29;20067;-68
2022/03/09 09:31:23;;;;;;;13.13;6.75;;;6.10;59.90;;;;;;4931394;29;20079;-67
2022/03/09 09:33:48;;;;;;;11.90;7.72;;;6.20;60.60;;;;;;4931590;29;20063;-68
2022/03/09 09:36:15;;;;;;;11.85;6.82;;;6.20;59.80;;;;;;4931274;29;20051;-68
2022/03/09 09:38:41;;;;;;;11.10;6.90;;;6.30;59.60;;;;;;4931042;29;20509;-68
2022/03/09 09:41:15;;;;;;;13.68;7.45;;;6.40;59.90;;;;;;4930853;29;20138;-68
2022/03/09 09:43:41;;;;;;;12.50;6.40;;;6.40;59.20;;;;;;4914783;29;20092;-68
2022/03/09 09:46:16;;;;;;;13.50;6.47;;;6.60;59.40;;;;;;4930149;29;20059;-68
2022/03/09 09:48:43;;;;;;;13.85;6.47;;;6.60;59.20;;;;;;4931634;29;20078;-68
2022/03/09 09:51:10;;;;;;;13.10;6.78;;;6.70;59.00;;;;;;4931248;29;20072;-68
2022/03/09 09:53:36;;;;;;;13.63;7.18;;;6.80;58.80;;;;;;4929701;29;20055;-69
2022/03/09 09:56:05;;;;;;;8.85;5.95;;;6.80;58.00;;;;;;4930726;29;20051;-68
2022/03/09 09:58:34;;;;;;;11.32;7.00;;;6.90;57.90;;;;;;4924225;29;20429;-68
2022/03/09 10:01:00;;;;;;;9.55;6.38;;;7.00;58.30;;;;;;4921092;29;20583;-68
2022/03/09 10:03:25;;;;;;;11.60;6.38;;;7.10;57.70;;;;;;4912061;29;20081;-68
2022/03/09 10:05:57;;;;;;;9.45;6.43;;;7.10;56.50;;;;;;4917209;29;20040;-68
2022/03/09 10:08:25;;;;;;;12.48;6.85;;;7.20;56.00;;;;;;4911183;29;20044;-68
2022/03/09 10:10:56;;;;;;;12.88;6.90;;;7.20;55.10;;;;;;4927691;29;20144;-68
2022/03/09 10:13:27;;;;;;;11.63;6.80;;;7.30;54.80;;;;;;4929029;29;20055;-68
2022/03/09 10:16:20;;;;;;;11.27;6.72;;;7.40;54.90;;;;;;4910407;29;20124;-68
2022/03/09 10:18:56;;;;;;;9.98;6.55;;;7.50;55.00;;;;;;4894971;29;20135;-68
2022/03/09 10:21:28;;;;;;;9.10;6.95;;;7.50;54.50;;;;;;4925345;29;20055;-68
2022/03/09 10:24:06;;;;;;;16.92;7.70;;;7.60;54.50;;;;;;4901883;29;20059;-67
2022/03/09 10:26:40;;;;;;;15.57;7.00;;;7.60;54.60;;;;;;4931427;29;20043;-67
2022/03/09 10:29:11;;;;;;;16.17;7.47;;;7.70;54.40;;;;;;4929176;29;20151;-68
2022/03/09 10:31:51;;;;;;;10.82;7.45;;;7.80;54.00;;;;;;4931431;29;20070;-67
2022/03/09 10:34:24;;;;;;;14.70;8.30;;;7.90;53.80;;;;;;4933808;29;20168;-67
2022/03/09 10:37:02;;;;;;;16.05;7.80;;;7.90;53.50;;;;;;4934849;29;20048;-67
2022/03/09 10:39:38;;;;;;;10.98;7.63;;;8.00;53.80;;;;;;4934569;29;20036;-68
2022/03/09 10:42:24;;;;;;;9.82;6.43;;;8.10;53.20;;;;;;4924686;29;20066;-67
2022/03/09 10:44:51;;;;;;;15.65;7.80;;;8.10;52.90;;;;;;4928783;29;20492;-68
2022/03/09 10:47:36;;;;;;;13.20;7.30;;;8.20;53.20;;;;;;4926380;29;20055;-68
2022/03/09 10:50:13;;;;;;;12.32;7.00;;;8.30;52.70;;;;;;4919277;29;20055;-68
2022/03/09 10:53:01;;;;;;;12.73;6.72;;;8.40;52.80;;;;;;4915768;29;20048;-68
2022/03/09 10:55:36;;;;;;;11.60;8.23;;;8.50;52.20;;;;;;4913807;29;20306;-69
2022/03/09 10:58:19;;;;;;;10.00;6.97;;;8.50;52.10;;;;;;4930762;29;20044;-68
2022/03/09 11:00:55;;;;;;;13.48;7.70;;;8.60;51.50;;;;;;4925114;29;20083;-69
2022/03/09 11:03:23;;;;;;;12.85;7.75;;;8.70;51.90;;;;;;4935686;29;20048;-71
2022/03/09 11:05:55;;;;;;;12.13;6.97;;;8.80;52.30;;;;;;4934137;29;20090;-68
2022/03/09 11:08:23;;;;;;;11.45;7.20;;;8.90;51.40;;;;;;4915829;29;20048;-68
2022/03/09 11:10:49;;;;;;;15.80;7.88;;;8.90;51.00;;;;;;4910823;29;20048;-71
2022/03/09 11:13:25;;;;;;;11.68;7.60;;;9.00;50.30;;;;;;4925855;29;20044;-70
2022/03/09 11:15:53;;;;;;;12.70;7.03;;;9.10;50.80;;;;;;4932451;29;20051;-68
2022/03/09 11:18:20;;;;;;;11.48;6.90;;;9.10;49.80;;;;;;4919251;29;20059;-68
2022/03/09 11:20:48;;;;;;;14.43;8.52;;;9.20;50.70;;;;;;4915045;29;20580;-69
2022/03/09 11:23:14;;;;;;;13.15;7.57;;;9.30;50.70;;;;;;4915225;29;20056;-68
2022/03/09 11:25:49;;;;;;;12.88;7.78;;;9.30;49.80;;;;;;4918777;29;20086;-71
2022/03/09 11:28:23;;;;;;;9.55;6.90;;;9.40;50.40;;;;;;4918997;29;20123;-69
2022/03/09 11:31:00;;;;;;;12.40;7.80;;;9.50;50.60;;;;;;4914164;29;20048;-69
2022/03/09 11:33:46;;;;;;;12.07;7.70;;;9.60;49.80;;;;;;4920419;29;20093;-69
2022/03/09 11:36:24;;;;;;;11.95;7.35;;;9.60;50.30;;;;;;4925671;29;20611;-69
2022/03/09 11:38:54;;;;;;;15.52;7.30;;;9.70;50.20;;;;;;4915926;29;20048;-69
2022/03/09 11:41:25;;;;;;;13.52;8.07;;;9.70;49.80;;;;;;4912076;29;20052;-67
2022/03/09 11:43:52;;;;;;;14.43;8.52;;;9.80;48.90;;;;;;4932775;29;20535;-68
2022/03/09 11:46:18;;;;;;;13.00;7.68;;;9.70;48.20;;;;;;4925760;29;20060;-68
2022/03/09 11:49:02;;;;;;;14.35;7.57;;;9.80;48.40;;;;;;4916261;29;20056;-69
2022/03/09 11:51:29;;;;;;;13.13;7.65;;;9.90;48.70;;;;;;4915334;29;20055;-68
2022/03/09 11:53:57;;;;;;;12.23;8.85;;;10.00;49.70;;;;;;4931608;29;20044;-68
2022/03/09 11:56:24;;;;;;;11.98;7.53;;;10.20;48.30;;;;;;4918836;29;20064;-67
2022/03/09 11:59:19;;;;;;;12.18;8.23;;;10.20;47.30;;;;;;4923750;29;20059;-68
2022/03/09 12:01:57;;;;;;;13.55;8.70;;;10.20;47.50;;;;;;4906412;29;20060;-68
2022/03/09 12:04:53;;;;;;;12.38;8.57;;;10.20;47.60;;;;;;4900481;29;20178;-68
2022/03/09 12:07:40;;;;;;;16.17;8.75;;;10.30;47.80;;;;;;4907062;29;20091;-69
2022/03/09 12:10:07;;;;;;;12.55;8.05;;;10.40;47.40;;;;;;4885487;29;20063;-68
2022/03/09 12:12:35;;;;;;;13.65;8.73;;;10.30;47.80;;;;;;4922410;29;20062;-68
2022/03/09 12:15:07;;;;;;;13.05;8.38;;;10.40;48.00;;;;;;4914123;29;20072;-68
2022/03/09 12:17:37;;;;;;;13.30;8.48;;;10.50;47.50;;;;;;4919351;29;20576;-69
2022/03/09 12:20:24;;;;;;;14.05;8.68;;;10.60;47.00;;;;;;4925539;29;20505;-69
2022/03/09 12:22:56;;;;;;;15.40;9.20;;;10.60;46.90;;;;;;4929945;29;20075;-68
2022/03/09 12:25:41;;;;;;;13.95;8.50;;;10.60;47.20;;;;;;4932975;29;20039;-68
2022/03/09 12:28:25;;;;;;;16.25;9.15;;;10.70;45.00;;;;;;4928248;29;20044;-69
2022/03/09 12:31:17;;;;;;;14.18;9.43;;;10.70;45.60;;;;;;4932903;29;20047;-68
2022/03/09 12:33:47;;;;;;;15.07;8.63;;;10.90;45.70;;;;;;4931454;29;20061;-70
2022/03/09 12:36:14;;;;;;;15.75;8.70;;;10.90;46.40;;;;;;4932630;29;20107;-69
2022/03/09 12:38:43;;;;;;;15.15;9.10;;;11.00;46.60;;;;;;4931632;29;20074;-69
2022/03/09 12:41:28;;;;;;;16.15;9.30;;;11.10;46.30;;;;;;4931998;29;20401;-68
2022/03/09 12:43:57;;;;;;;14.63;10.50;;;11.30;45.40;;;;;;4926216;29;20135;-68
2022/03/09 12:46:24;;;;;;;14.73;9.45;;;11.30;44.40;;;;;;4930896;29;20417;-69
2022/03/09 12:48:50;;;;;;;13.27;8.68;;;11.40;44.70;;;;;;4931146;29;20103;-69
2022/03/09 12:51:16;;;;;;;17.15;9.60;;;11.50;44.90;;;;;;4931188;29;20055;-69
2022/03/09 12:53:42;;;;;;;14.60;8.90;;;11.50;43.90;;;;;;4931155;29;20483;-69